createdAt,value
2022-12-16T00:03:20.833Z,30.20
2022-12-16T00:09:22.805Z,28.77
2022-12-16T00:15:24.710Z,27.43
2022-12-16T00:21:29.569Z,28.00
2022-12-16T00:27:31.517Z,29.00
2022-12-16T00:33:33.961Z,23.00
2022-12-16T00:39:36.320Z,26.27
2022-12-16T00:45:39.277Z,31.30
2022-12-16T00:51:41.263Z,29.13
2022-12-16T00:57:43.669Z,25.37
2022-12-16T01:03:45.672Z,20.53
2022-12-16T01:09:47.607Z,25.10
2022-12-16T01:15:50.209Z,25.33
2022-12-16T01:21:52.417Z,28.40
2022-12-16T01:27:56.983Z,25.67
2022-12-16T01:33:58.858Z,23.03
2022-12-16T01:40:00.762Z,30.83
2022-12-16T01:46:14.746Z,23.50
2022-12-16T01:52:23.972Z,24.13
2022-12-16T01:58:32.016Z,26.20
2022-12-16T02:04:33.937Z,18.40
2022-12-16T02:10:43.444Z,24.43
2022-12-16T02:17:21.669Z,24.13
2022-12-16T02:24:14.822Z,24.67
2022-12-16T02:30:53.517Z,24.97
2022-12-16T02:37:31.186Z,24.03
2022-12-16T02:44:00.262Z,29.47
2022-12-16T02:50:02.765Z,29.90
2022-12-16T02:56:28.052Z,27.40
2022-12-16T03:03:17.745Z,30.80
2022-12-16T03:09:26.799Z,31.13
2022-12-16T03:15:34.013Z,33.57
2022-12-16T03:22:16.330Z,26.93
2022-12-16T03:28:27.961Z,25.53
2022-12-16T03:35:01.312Z,25.73
2022-12-16T03:41:04.189Z,30.33
2022-12-16T03:47:06.501Z,23.03
2022-12-16T03:53:08.821Z,31.27
2022-12-16T03:59:11.030Z,33.63
2022-12-16T04:05:13.635Z,38.97
2022-12-16T04:11:34.795Z,31.97
2022-12-16T04:17:55.347Z,27.73
2022-12-16T04:24:16.485Z,26.27
2022-12-16T04:30:21.090Z,29.03
2022-12-16T04:36:41.567Z,29.97
2022-12-16T04:43:01.571Z,27.00
2022-12-16T04:49:22.033Z,31.90
2022-12-16T04:55:42.674Z,35.97
2022-12-16T05:02:03.668Z,39.73
2022-12-16T05:08:24.551Z,28.90
2022-12-16T05:14:44.697Z,27.77
2022-12-16T05:21:05.109Z,38.40
2022-12-16T05:27:25.609Z,37.27
2022-12-16T05:33:46.006Z,36.00
2022-12-16T05:40:06.414Z,31.27
2022-12-16T05:46:26.947Z,27.53
2022-12-16T05:52:47.163Z,26.90
2022-12-16T05:59:07.747Z,56.73
2022-12-16T06:05:28.207Z,36.53
2022-12-16T06:11:48.610Z,54.63
2022-12-16T06:18:09.811Z,50.60
2022-12-16T06:24:30.284Z,31.73
2022-12-16T06:30:50.645Z,30.03
2022-12-16T06:37:11.035Z,35.20
2022-12-16T06:43:31.670Z,33.57
2022-12-16T06:49:52.019Z,30.20
2022-12-16T06:56:12.476Z,25.53
2022-12-16T07:02:46.785Z,29.20
2022-12-16T07:09:07.100Z,26.63
2022-12-16T07:15:28.043Z,27.07
2022-12-16T07:21:48.486Z,27.73
2022-12-16T07:28:13.837Z,29.20
2022-12-16T07:34:40.782Z,26.07
2022-12-16T07:41:06.101Z,25.53
2022-12-16T07:47:26.567Z,22.80
2022-12-16T07:53:47.125Z,35.57
2022-12-16T08:00:07.548Z,32.13
2022-12-16T08:06:28.800Z,36.53
2022-12-16T08:12:49.513Z,34.27
2022-12-16T08:19:11.424Z,36.50
2022-12-16T08:25:31.981Z,32.47
2022-12-16T08:31:52.297Z,28.00
2022-12-16T08:38:16.383Z,40.23
2022-12-16T08:44:37.101Z,35.17
2022-12-16T08:50:57.593Z,49.20
2022-12-16T08:57:18.265Z,38.83
2022-12-16T09:03:38.649Z,33.83
2022-12-16T09:09:59.668Z,39.33
2022-12-16T09:16:20.809Z,40.40
2022-12-16T09:22:40.989Z,32.70
2022-12-16T09:29:01.650Z,36.03
2022-12-16T09:35:22.088Z,36.10
2022-12-16T09:41:45.340Z,34.80
2022-12-16T09:48:25.010Z,24.33
2022-12-16T09:54:52.259Z,34.40
2022-12-16T10:01:13.368Z,32.93
2022-12-16T10:07:41.980Z,33.97
2022-12-16T10:14:22.189Z,36.40
2022-12-16T10:20:57.635Z,30.00
2022-12-16T10:27:34.825Z,38.10
2022-12-16T10:33:55.539Z,54.43
2022-12-16T10:40:19.270Z,35.70
2022-12-16T10:46:46.343Z,33.93
2022-12-16T10:53:16.598Z,45.67
2022-12-16T10:59:37.227Z,34.13
2022-12-16T11:05:57.932Z,36.93
2022-12-16T11:12:38.796Z,36.07
2022-12-16T11:19:13.354Z,31.97
2022-12-16T11:25:40.134Z,31.17
2022-12-16T11:32:01.496Z,29.30
2022-12-16T11:38:28.189Z,34.10
2022-12-16T11:45:38.265Z,63.37
2022-12-16T11:52:28.071Z,68.60
2022-12-16T11:59:06.847Z,43.53
2022-12-16T12:05:32.900Z,24.57
2022-12-16T12:12:06.037Z,40.43
2022-12-16T12:19:08.499Z,40.03
2022-12-16T12:25:45.474Z,55.53
2022-12-16T12:32:46.307Z,48.43
2022-12-16T12:39:38.663Z,28.10
2022-12-16T12:46:17.260Z,24.90
2022-12-16T12:53:14.596Z,26.37
2022-12-16T13:00:09.405Z,20.77
2022-12-16T13:06:34.316Z,27.93
2022-12-16T13:12:55.132Z,30.43
2022-12-16T13:19:49.719Z,38.23
2022-12-16T13:26:11.669Z,32.40
2022-12-16T13:32:45.265Z,30.83
2022-12-16T13:39:11.772Z,31.53
2022-12-16T13:45:52.097Z,34.63
2022-12-16T13:52:20.950Z,32.87
2022-12-16T13:59:02.202Z,34.20
2022-12-16T14:05:32.539Z,26.13
2022-12-16T14:12:04.253Z,28.27
2022-12-16T14:18:45.021Z,36.70
2022-12-16T14:25:05.451Z,31.43
2022-12-16T14:31:50.760Z,34.90
2022-12-16T14:38:13.141Z,34.73
2022-12-16T14:44:35.771Z,35.60
2022-12-16T14:50:56.332Z,29.67
2022-12-16T14:57:17.217Z,27.57
2022-12-16T15:03:59.278Z,32.10
2022-12-16T15:10:20.617Z,34.07
2022-12-16T15:16:50.962Z,31.00
2022-12-16T15:23:11.744Z,26.10
2022-12-16T15:29:54.103Z,26.73
2022-12-16T15:36:21.446Z,30.87
2022-12-16T15:42:51.321Z,34.27
2022-12-16T15:49:12.129Z,40.97
2022-12-16T15:55:46.872Z,33.20
2022-12-16T16:02:07.502Z,29.20
2022-12-16T16:08:31.259Z,31.23
2022-12-16T16:14:51.772Z,31.70
2022-12-16T16:21:12.203Z,35.93
2022-12-16T16:27:34.150Z,31.83
2022-12-16T16:33:54.319Z,40.23
2022-12-16T16:40:14.597Z,38.23
2022-12-16T16:47:00.142Z,41.83
2022-12-16T16:53:21.065Z,43.40
2022-12-16T16:59:43.324Z,32.87
2022-12-16T17:06:03.942Z,32.17
2022-12-16T17:12:41.961Z,30.50
2022-12-16T17:19:02.447Z,32.37
2022-12-16T17:25:23.548Z,31.50
2022-12-16T17:31:44.011Z,29.07
2022-12-16T17:38:04.929Z,28.10
2022-12-16T17:44:25.362Z,33.47
2022-12-16T17:50:45.778Z,46.47
2022-12-16T17:57:06.129Z,43.40
2022-12-16T18:03:26.301Z,34.73
2022-12-16T18:09:46.467Z,36.43
2022-12-16T18:16:13.087Z,31.87
2022-12-16T18:22:35.455Z,36.40
2022-12-16T18:28:56.156Z,23.83
2022-12-16T18:35:16.596Z,27.20
2022-12-16T18:41:40.766Z,29.60
2022-12-16T18:48:01.031Z,26.00
2022-12-16T18:54:21.485Z,26.90
2022-12-16T19:00:42.032Z,27.17
2022-12-16T19:07:04.012Z,31.23
2022-12-16T19:13:44.205Z,32.80
2022-12-16T19:20:04.872Z,31.20
2022-12-16T19:26:25.376Z,33.77
2022-12-16T19:32:45.954Z,39.10
2022-12-16T19:39:06.671Z,29.13
2022-12-16T19:45:27.542Z,42.80
2022-12-16T19:51:49.084Z,32.90
2022-12-16T19:58:10.056Z,42.80
2022-12-16T20:04:30.537Z,46.43
2022-12-16T20:10:56.271Z,38.77
2022-12-16T20:17:17.010Z,42.73
2022-12-16T20:23:37.287Z,46.93
2022-12-16T20:29:57.788Z,37.57
2022-12-16T20:36:21.439Z,38.00
2022-12-16T20:42:42.122Z,34.73
2022-12-16T20:49:05.052Z,36.63
2022-12-16T20:55:26.008Z,33.57
2022-12-16T21:02:01.563Z,38.37
2022-12-16T21:08:26.907Z,39.63
2022-12-16T21:14:47.435Z,36.77
2022-12-16T21:21:13.012Z,37.77
2022-12-16T21:27:33.582Z,34.90
2022-12-16T21:33:54.337Z,27.20
2022-12-16T21:40:15.704Z,30.60
2022-12-16T21:46:36.007Z,32.33
2022-12-16T21:52:56.544Z,28.10
2022-12-16T21:59:16.794Z,41.67
2022-12-16T22:05:37.259Z,33.07
2022-12-16T22:11:57.754Z,47.73
2022-12-16T22:18:18.561Z,47.13
2022-12-16T22:24:38.884Z,44.80
2022-12-16T22:30:58.989Z,33.70
2022-12-16T22:37:19.468Z,37.83
2022-12-16T22:43:50.865Z,54.27
2022-12-16T22:50:12.599Z,58.20
2022-12-16T22:56:33.171Z,49.80
2022-12-16T23:02:53.929Z,48.47
2022-12-16T23:09:14.620Z,55.93
2022-12-16T23:15:35.366Z,46.60
2022-12-16T23:21:56.488Z,57.90
2022-12-16T23:28:16.975Z,83.13
2022-12-16T23:34:42.278Z,72.03
2022-12-16T23:41:06.407Z,98.83
2022-12-16T23:47:26.968Z,70.00
2022-12-16T23:53:47.552Z,84.67
